Ncc Rabigh — HZQA — position and weather

sailwx.info

Track history (hours):
 
Tides and Currents Weather Stations Pressure Air Temp Water Temp Dewpoint Dewpoint Depression Visibility Wind Speed Wind Dir Waves Ship Positions

Ncc Rabigh

Last reported at 2017-May-24 03:01 UTC. Time now 2017-May-25 10:45 UTC.
Position N 32°02' E 120°24'.

Length 183 m; draft 6.5 m.

Type: Ship (hazmat cat B). MMSI: 403575000.

Date/timePositionNaut miles runAvg speedWind from/ knotsBaromVisibWave heightAir tempDewpointWater temp
2017-May-24 03:01N 32°02' E 120°24'6 9.9
2017-May-24 02:22N 32°04' E 120°31'30 9.5
2017-May-23 23:16N 31°47' E 120°59'310.9
2017-May-23 23:00N 31°46' E 121°02'510.9
2017-May-23 22:30N 31°43' E 121°07'611.1
2017-May-23 22:00N 31°40' E 121°13'511.1
2017-May-23 21:30N 31°36' E 121°17'3 5.7
2017-May-23 21:00N 31°34' E 121°20'0 0.1
2017-May-23 20:29N 31°34' E 121°20'0 0.0
2017-May-23 19:59N 31°34' E 121°20'0 0.0
2017-May-23 19:29N 31°34' E 121°20'0 0.1
2017-May-23 18:59N 31°34' E 121°20'0 0.0
2017-May-23 18:29N 31°34' E 121°20'0 0.0
2017-May-23 17:59N 31°34' E 121°20'0 0.1
2017-May-23 17:29N 31°34' E 121°20'0 0.1
2017-May-23 16:59N 31°34' E 121°20'0 0.2
2017-May-23 16:29N 31°34' E 121°20'0 0.1
2017-May-23 15:59N 31°34' E 121°20'0 0.0
2017-May-23 15:29N 31°34' E 121°20'0 0.0
2017-May-23 14:59N 31°34' E 121°20'0 0.0
2017-May-23 14:29N 31°34' E 121°20'0 0.0
2017-May-23 13:29N 31°34' E 121°20'0 0.1
2017-May-23 12:53N 31°34' E 121°20'0 0.2
2017-May-23 12:29N 31°34' E 121°20'0 0.1
2017-May-23 11:59N 31°34' E 121°20'0 0.1
2017-May-23 11:29N 31°34' E 121°20'0 0.0
2017-May-23 10:59N 31°34' E 121°20'0 0.0
2017-May-23 10:29N 31°34' E 121°20'0 0.0
2017-May-23 09:56N 31°34' E 121°20'0 0.0
2017-May-23 09:29N 31°34' E 121°20'0 0.0
2017-May-23 08:59N 31°34' E 121°20'0 0.0
2017-May-23 08:26N 31°34' E 121°20'0 0.0
2017-May-23 07:59N 31°34' E 121°20'0 0.0
2017-May-23 07:29N 31°34' E 121°20'0 0.0
2017-May-23 06:59N 31°34' E 121°20'0 0.0
2017-May-23 06:29N 31°34' E 121°20'1 1.2
2017-May-23 06:00N 31°34' E 121°20'5 9.7
2017-May-23 05:30N 31°31' E 121°25'611.2
2017-May-23 05:01N 31°27' E 121°29'4 7.9
2017-May-23 04:30N 31°24' E 121°33'4 8.6
2017-May-23 04:01N 31°22' E 121°37'4 8.3
2017-May-23 03:30N 31°20' E 121°42'510.8
2017-May-23 03:00N 31°16' E 121°46'611.5
2017-May-23 02:31N 31°12' E 121°50'612.9
2017-May-23 02:00N 31°08' E 121°56'612.1
2017-May-23 01:30N 31°05' E 122°02'611.6
2017-May-23 01:00N 31°03' E 122°09'5 9.7
2017-May-23 00:30N 31°03' E 122°14'4 8.6
2017-May-23 00:00N 31°02' E 122°19'4 8.7
2017-May-22 23:30N 31°01' E 122°24'5 9.9
2017-May-22 22:57N 31°01' E 122°31'611.8
2017-May-22 22:25N 31°03' E 122°37'40 1.0
2017-May-21 06:10N 31°28' E 123°14'1 3.8
2017-May-21 06:00N 31°28' E 123°15'3 5.9
2017-May-21 05:30N 31°26' E 123°18'4 8.3
2017-May-21 05:00N 31°24' E 123°22'3 5.5
2017-May-21 04:23N 31°22' E 123°25'20 2.5
2017-May-20 20:35N 31°42' E 123°29'1 9.6
2017-May-20 20:29N 31°41' E 123°30'5 9.6
2017-May-20 19:59N 31°38' E 123°34'12 9.8
2017-May-20 18:47N 31°29' E 123°43'39 8.9
2017-May-20 14:26N 31°13' E 123°02'1311.8
2017-May-20 13:20N 31°06' E 122°49'513.8
2017-May-20 12:57N 31°06' E 122°43'814.1
2017-May-20 12:23N 31°05' E 122°34'611.0
2017-May-20 11:49N 31°06' E 122°27'411.8
2017-May-20 11:30N 31°06' E 122°22'713.0
2017-May-20 11:00N 31°08' E 122°15'612.6
2017-May-20 10:30N 31°12' E 122°09'612.4
2017-May-20 10:00N 31°14' E 122°03'612.9
2017-May-20 09:30N 31°16' E 121°55'713.2
2017-May-20 09:00N 31°17' E 121°48'612.6
2017-May-20 08:30N 31°20' E 121°41'611.7
2017-May-20 08:00N 31°23' E 121°35'611.7
2017-May-20 07:30N 31°26' E 121°29'4 8.7
2017-May-20 07:00N 31°29' E 121°26'611.7
2017-May-20 06:30N 31°33' E 121°20'713.7
2017-May-20 06:00N 31°38' E 121°15'714.6
2017-May-20 05:30N 31°42' E 121°08'713.3
2017-May-20 05:01N 31°46' E 121°02'712.2
2017-May-20 04:24N 31°50' E 120°54'2211.3
2017-May-20 02:29N 32°01' E 120°33'5 8.4
2017-May-20 01:55N 31°60' E 120°27'2 3.7
2017-May-20 01:29N 31°58' E 120°26'0 0.0
2017-May-20 00:59N 31°58' E 120°26'0 0.0
2017-May-20 00:23N 31°58' E 120°26'0 0.0
2017-May-19 23:41N 31°58' E 120°26'0 0.0
2017-May-19 23:29N 31°58' E 120°26'0 0.0
2017-May-19 22:53N 31°58' E 120°26'0 0.0
2017-May-19 21:29N 31°58' E 120°26'0 0.0
2017-May-19 18:41N 31°58' E 120°26'0 0.0
2017-May-19 18:26N 31°58' E 120°26'0 0.0
2017-May-19 17:56N 31°58' E 120°26'0 0.0
2017-May-19 17:26N 31°58' E 120°26'0 0.0
2017-May-19 16:26N 31°58' E 120°26'0 0.0
2017-May-19 15:05N 31°58' E 120°26'0 0.0
2017-May-19 14:44N 31°58' E 120°26'0 0.0
2017-May-19 13:41N 31°58' E 120°26'0 0.0
2017-May-19 13:29N 31°58' E 120°26'0 0.0
2017-May-19 12:29N 31°58' E 120°26'0 0.0
2017-May-19 09:38N 31°58' E 120°26'0 0.0
2017-May-19 09:29N 31°58' E 120°26'0 0.0
2017-May-19 08:59N 31°58' E 120°26'0 0.0
2017-May-19 08:23N 31°58' E 120°26'0 0.0
2017-May-19 07:59N 31°58' E 120°26'0 0.0
2017-May-19 07:29N 31°58' E 120°26'0 0.0
2017-May-19 05:23N 31°58' E 120°26'0 0.0
2017-May-19 04:59N 31°58' E 120°26'0 0.0
2017-May-19 04:26N 31°58' E 120°26'0 0.0
2017-May-19 03:11N 31°58' E 120°26'0 0.0
2017-May-19 02:59N 31°58' E 120°26'0 0.0
2017-May-19 02:29N 31°58' E 120°26'0 0.0
2017-May-19 01:53N 31°58' E 120°26'0 0.0
2017-May-19 01:29N 31°58' E 120°26'0 0.0
2017-May-19 00:56N 31°58' E 120°26'0 0.0
2017-May-19 00:29N 31°58' E 120°26'0 0.0
2017-May-18 23:56N 31°58' E 120°26'0 0.0
2017-May-18 22:47N 31°58' E 120°26'0 0.0
2017-May-18 22:23N 31°58' E 120°26'0 0.0
2017-May-18 21:47N 31°58' E 120°26'0 0.0
2017-May-18 19:53N 31°58' E 120°26'0 0.0
2017-May-18 18:32N 31°58' E 120°26'0 0.0
2017-May-18 18:26N 31°58' E 120°26'0 0.0
2017-May-18 17:41N 31°58' E 120°26'0 0.0
2017-May-18 17:29N 31°58' E 120°26'0 0.0
2017-May-18 16:41N 31°58' E 120°26'0 0.0
2017-May-18 15:56N 31°58' E 120°26'0 0.0
2017-May-18 12:29N 31°58' E 120°26'0 0.0
2017-May-18 11:41N 31°58' E 120°26'0 0.0
2017-May-18 11:23N 31°58' E 120°26'0 0.0
2017-May-18 10:47N 31°58' E 120°26'0 0.0
2017-May-18 10:11N 31°58' E 120°26'0 0.0
2017-May-18 09:59N 31°58' E 120°26'0 0.0
2017-May-18 09:23N 31°58' E 120°26'0 0.0
2017-May-18 09:00N 31°58' E 120°26'1 1.8
2017-May-18 08:30N 31°59' E 120°27'5 5.9
2017-May-18 07:41N 32°01' E 120°32'21 8.6
2017-May-18 05:13N 31°51' E 120°54'5 9.9
2017-May-18 04:41N 31°47' E 120°58'2 9.7
2017-May-18 04:29N 31°47' E 120°60'510.2
2017-May-18 04:00N 31°45' E 121°05'510.6
2017-May-18 03:30N 31°41' E 121°10'510.3
2017-May-18 03:00N 31°38' E 121°15'510.9
2017-May-18 02:30N 31°34' E 121°19'611.0
2017-May-18 02:00N 31°31' E 121°24'510.8
2017-May-18 01:30N 31°27' E 121°29'3 6.8
2017-May-18 01:00N 31°25' E 121°32'510.0
2017-May-18 00:30N 31°22' E 121°37'611.3
2017-May-18 00:00N 31°20' E 121°42'611.3
2017-May-17 23:30N 31°17' E 121°48'611.6
2017-May-17 23:00N 31°16' E 121°55'611.6
2017-May-17 22:30N 31°15' E 122°02'611.3
2017-May-17 22:00N 31°13' E 122°08'611.8
2017-May-17 21:30N 31°09' E 122°13'611.7
2017-May-17 21:00N 31°06' E 122°19'510.4
2017-May-17 20:30N 31°06' E 122°25'510.2
2017-May-17 20:00N 31°07' E 122°31'4 7.0
2017-May-17 19:26N 31°08' E 122°36'0 0.0
2017-May-17 16:32N 31°08' E 122°36'0 0.1
2017-May-17 15:09N 31°08' E 122°36'1 5.3
2017-May-17 15:00N 31°08' E 122°37'712.2
2017-May-17 14:26N 31°06' E 122°45'1112.3
2017-May-17 13:30N 31°04' E 122°58'612.3
2017-May-17 13:00N 31°00' E 123°03'712.1
2017-May-17 12:24N 30°54' E 123°09'1112.0
2017-May-17 11:27N 30°47' E 123°19'511.0
2017-May-17 10:58N 30°42' E 123°21'912.4
2017-May-17 10:15N 30°33' E 123°21'712.7
2017-May-17 09:44N 30°26' E 123°21'812.9
2017-May-17 09:09N 30°19' E 123°21'81 9.7
2017-May-17 00:48N 29°58' E 121°50'310.2
2017-May-17 00:29N 29°59' E 121°47'  
Track history (hours):
 
Tides and Currents Weather Stations Pressure Air Temp Water Temp Dewpoint Dewpoint Depression Visibility Wind Speed Wind Dir Waves Ship Positions

Ncc Rabigh

Last reported at 2017-May-24 03:01 UTC. Time now 2017-May-25 10:45 UTC.
Position N 32°02' E 120°24'.

Length 183 m; draft 6.5 m.

Type: Ship (hazmat cat B). MMSI: 403575000.

Date/timePositionNaut miles runAvg speedWind from/ knotsBaromVisibWave heightAir tempDewpointWater temp
2017-May-24 03:01N 32°02' E 120°24'6 9.9
2017-May-24 02:22N 32°04' E 120°31'30 9.5
2017-May-23 23:16N 31°47' E 120°59'310.9
2017-May-23 23:00N 31°46' E 121°02'510.9
2017-May-23 22:30N 31°43' E 121°07'611.1
2017-May-23 22:00N 31°40' E 121°13'511.1
2017-May-23 21:30N 31°36' E 121°17'3 5.7
2017-May-23 21:00N 31°34' E 121°20'0 0.1
2017-May-23 20:29N 31°34' E 121°20'0 0.0
2017-May-23 19:59N 31°34' E 121°20'0 0.0
2017-May-23 19:29N 31°34' E 121°20'0 0.1
2017-May-23 18:59N 31°34' E 121°20'0 0.0
2017-May-23 18:29N 31°34' E 121°20'0 0.0
2017-May-23 17:59N 31°34' E 121°20'0 0.1
2017-May-23 17:29N 31°34' E 121°20'0 0.1
2017-May-23 16:59N 31°34' E 121°20'0 0.2
2017-May-23 16:29N 31°34' E 121°20'0 0.1
2017-May-23 15:59N 31°34' E 121°20'0 0.0
2017-May-23 15:29N 31°34' E 121°20'0 0.0
2017-May-23 14:59N 31°34' E 121°20'0 0.0
2017-May-23 14:29N 31°34' E 121°20'0 0.0
2017-May-23 13:29N 31°34' E 121°20'0 0.1
2017-May-23 12:53N 31°34' E 121°20'0 0.2
2017-May-23 12:29N 31°34' E 121°20'0 0.1
2017-May-23 11:59N 31°34' E 121°20'0 0.1
2017-May-23 11:29N 31°34' E 121°20'0 0.0
2017-May-23 10:59N 31°34' E 121°20'0 0.0
2017-May-23 10:29N 31°34' E 121°20'0 0.0
2017-May-23 09:56N 31°34' E 121°20'0 0.0
2017-May-23 09:29N 31°34' E 121°20'0 0.0
2017-May-23 08:59N 31°34' E 121°20'0 0.0
2017-May-23 08:26N 31°34' E 121°20'0 0.0
2017-May-23 07:59N 31°34' E 121°20'0 0.0
2017-May-23 07:29N 31°34' E 121°20'0 0.0
2017-May-23 06:59N 31°34' E 121°20'0 0.0
2017-May-23 06:29N 31°34' E 121°20'1 1.2
2017-May-23 06:00N 31°34' E 121°20'5 9.7
2017-May-23 05:30N 31°31' E 121°25'611.2
2017-May-23 05:01N 31°27' E 121°29'4 7.9
2017-May-23 04:30N 31°24' E 121°33'4 8.6
2017-May-23 04:01N 31°22' E 121°37'4 8.3
2017-May-23 03:30N 31°20' E 121°42'510.8
2017-May-23 03:00N 31°16' E 121°46'611.5
2017-May-23 02:31N 31°12' E 121°50'612.9
2017-May-23 02:00N 31°08' E 121°56'612.1
2017-May-23 01:30N 31°05' E 122°02'611.6
2017-May-23 01:00N 31°03' E 122°09'5 9.7
2017-May-23 00:30N 31°03' E 122°14'4 8.6
2017-May-23 00:00N 31°02' E 122°19'4 8.7
2017-May-22 23:30N 31°01' E 122°24'5 9.9
2017-May-22 22:57N 31°01' E 122°31'611.8
2017-May-22 22:25N 31°03' E 122°37'40 1.0
2017-May-21 06:10N 31°28' E 123°14'1 3.8
2017-May-21 06:00N 31°28' E 123°15'3 5.9
2017-May-21 05:30N 31°26' E 123°18'4 8.3
2017-May-21 05:00N 31°24' E 123°22'3 5.5
2017-May-21 04:23N 31°22' E 123°25'20 2.5
2017-May-20 20:35N 31°42' E 123°29'1 9.6
2017-May-20 20:29N 31°41' E 123°30'5 9.6
2017-May-20 19:59N 31°38' E 123°34'12 9.8
2017-May-20 18:47N 31°29' E 123°43'39 8.9
2017-May-20 14:26N 31°13' E 123°02'1311.8
2017-May-20 13:20N 31°06' E 122°49'513.8
2017-May-20 12:57N 31°06' E 122°43'814.1
2017-May-20 12:23N 31°05' E 122°34'611.0
2017-May-20 11:49N 31°06' E 122°27'411.8
2017-May-20 11:30N 31°06' E 122°22'713.0
2017-May-20 11:00N 31°08' E 122°15'612.6
2017-May-20 10:30N 31°12' E 122°09'612.4
2017-May-20 10:00N 31°14' E 122°03'612.9
2017-May-20 09:30N 31°16' E 121°55'713.2
2017-May-20 09:00N 31°17' E 121°48'612.6
2017-May-20 08:30N 31°20' E 121°41'611.7
2017-May-20 08:00N 31°23' E 121°35'611.7
2017-May-20 07:30N 31°26' E 121°29'4 8.7
2017-May-20 07:00N 31°29' E 121°26'611.7
2017-May-20 06:30N 31°33' E 121°20'713.7
2017-May-20 06:00N 31°38' E 121°15'714.6
2017-May-20 05:30N 31°42' E 121°08'713.3
2017-May-20 05:01N 31°46' E 121°02'712.2
2017-May-20 04:24N 31°50' E 120°54'2211.3
2017-May-20 02:29N 32°01' E 120°33'5 8.4
2017-May-20 01:55N 31°60' E 120°27'2 3.7
2017-May-20 01:29N 31°58' E 120°26'0 0.0
2017-May-20 00:59N 31°58' E 120°26'0 0.0
2017-May-20 00:23N 31°58' E 120°26'0 0.0
2017-May-19 23:41N 31°58' E 120°26'0 0.0
2017-May-19 23:29N 31°58' E 120°26'0 0.0
2017-May-19 22:53N 31°58' E 120°26'0 0.0
2017-May-19 21:29N 31°58' E 120°26'0 0.0
2017-May-19 18:41N 31°58' E 120°26'0 0.0
2017-May-19 18:26N 31°58' E 120°26'0 0.0
2017-May-19 17:56N 31°58' E 120°26'0 0.0
2017-May-19 17:26N 31°58' E 120°26'0 0.0
2017-May-19 16:26N 31°58' E 120°26'0 0.0
2017-May-19 15:05N 31°58' E 120°26'0 0.0
2017-May-19 14:44N 31°58' E 120°26'0 0.0
2017-May-19 13:41N 31°58' E 120°26'0 0.0
2017-May-19 13:29N 31°58' E 120°26'0 0.0
2017-May-19 12:29N 31°58' E 120°26'0 0.0
2017-May-19 09:38N 31°58' E 120°26'0 0.0
2017-May-19 09:29N 31°58' E 120°26'0 0.0
2017-May-19 08:59N 31°58' E 120°26'0 0.0
2017-May-19 08:23N 31°58' E 120°26'0 0.0
2017-May-19 07:59N 31°58' E 120°26'0 0.0
2017-May-19 07:29N 31°58' E 120°26'0 0.0
2017-May-19 05:23N 31°58' E 120°26'0 0.0
2017-May-19 04:59N 31°58' E 120°26'0 0.0
2017-May-19 04:26N 31°58' E 120°26'0 0.0
2017-May-19 03:11N 31°58' E 120°26'0 0.0
2017-May-19 02:59N 31°58' E 120°26'0 0.0
2017-May-19 02:29N 31°58' E 120°26'0 0.0
2017-May-19 01:53N 31°58' E 120°26'0 0.0
2017-May-19 01:29N 31°58' E 120°26'0 0.0
2017-May-19 00:56N 31°58' E 120°26'0 0.0
2017-May-19 00:29N 31°58' E 120°26'0 0.0
2017-May-18 23:56N 31°58' E 120°26'0 0.0
2017-May-18 22:47N 31°58' E 120°26'0 0.0
2017-May-18 22:23N 31°58' E 120°26'0 0.0
2017-May-18 21:47N 31°58' E 120°26'0 0.0
2017-May-18 19:53N 31°58' E 120°26'0 0.0
2017-May-18 18:32N 31°58' E 120°26'0 0.0
2017-May-18 18:26N 31°58' E 120°26'0 0.0
2017-May-18 17:41N 31°58' E 120°26'0 0.0
2017-May-18 17:29N 31°58' E 120°26'0 0.0
2017-May-18 16:41N 31°58' E 120°26'0 0.0
2017-May-18 15:56N 31°58' E 120°26'0 0.0
2017-May-18 12:29N 31°58' E 120°26'0 0.0
2017-May-18 11:41N 31°58' E 120°26'0 0.0
2017-May-18 11:23N 31°58' E 120°26'0 0.0
2017-May-18 10:47N 31°58' E 120°26'0 0.0
2017-May-18 10:11N 31°58' E 120°26'0 0.0
2017-May-18 09:59N 31°58' E 120°26'0 0.0
2017-May-18 09:23N 31°58' E 120°26'0 0.0
2017-May-18 09:00N 31°58' E 120°26'1 1.8
2017-May-18 08:30N 31°59' E 120°27'5 5.9
2017-May-18 07:41N 32°01' E 120°32'21 8.6
2017-May-18 05:13N 31°51' E 120°54'5 9.9
2017-May-18 04:41N 31°47' E 120°58'2 9.7
2017-May-18 04:29N 31°47' E 120°60'510.2
2017-May-18 04:00N 31°45' E 121°05'510.6
2017-May-18 03:30N 31°41' E 121°10'510.3
2017-May-18 03:00N 31°38' E 121°15'510.9
2017-May-18 02:30N 31°34' E 121°19'611.0
2017-May-18 02:00N 31°31' E 121°24'510.8
2017-May-18 01:30N 31°27' E 121°29'3 6.8
2017-May-18 01:00N 31°25' E 121°32'510.0
2017-May-18 00:30N 31°22' E 121°37'611.3
2017-May-18 00:00N 31°20' E 121°42'611.3
2017-May-17 23:30N 31°17' E 121°48'611.6
2017-May-17 23:00N 31°16' E 121°55'611.6
2017-May-17 22:30N 31°15' E 122°02'611.3
2017-May-17 22:00N 31°13' E 122°08'611.8
2017-May-17 21:30N 31°09' E 122°13'611.7
2017-May-17 21:00N 31°06' E 122°19'510.4
2017-May-17 20:30N 31°06' E 122°25'510.2
2017-May-17 20:00N 31°07' E 122°31'4 7.0
2017-May-17 19:26N 31°08' E 122°36'0 0.0
2017-May-17 16:32N 31°08' E 122°36'0 0.1
2017-May-17 15:09N 31°08' E 122°36'1 5.3
2017-May-17 15:00N 31°08' E 122°37'712.2
2017-May-17 14:26N 31°06' E 122°45'1112.3
2017-May-17 13:30N 31°04' E 122°58'612.3
2017-May-17 13:00N 31°00' E 123°03'712.1
2017-May-17 12:24N 30°54' E 123°09'1112.0
2017-May-17 11:27N 30°47' E 123°19'511.0
2017-May-17 10:58N 30°42' E 123°21'912.4
2017-May-17 10:15N 30°33' E 123°21'712.7
2017-May-17 09:44N 30°26' E 123°21'812.9
2017-May-17 09:09N 30°19' E 123°21'81 9.7
2017-May-17 00:48N 29°58' E 121°50'310.2
2017-May-17 00:29N 29°59' E 121°47'  

Dump ship's entire track history